createdAt,value
2022-11-29T00:01:38.870Z,102632.84
2022-11-29T00:04:06.864Z,102638.03
2022-11-29T00:06:37.008Z,102600.81
2022-11-29T00:09:07.358Z,102632.31
2022-11-29T00:11:55.183Z,102630.38
2022-11-29T00:14:24.300Z,102627.28
2022-11-29T00:16:53.243Z,102624.41
2022-11-29T00:19:22.007Z,102625.72
2022-11-29T00:21:51.206Z,102613.25
2022-11-29T00:24:19.298Z,102624.41
2022-11-29T00:26:47.520Z,102526.53
2022-11-29T00:29:15.374Z,102565.03
2022-11-29T00:31:43.848Z,102621.31
2022-11-29T00:34:12.749Z,102624.03
2022-11-29T00:36:40.909Z,102619.75
2022-11-29T00:39:13.774Z,102588.91
2022-11-29T00:41:41.648Z,102616.38
2022-11-29T00:44:09.611Z,102616.50
2022-11-29T00:46:37.751Z,102587.59
2022-11-29T00:49:06.396Z,102610.41
2022-11-29T00:51:34.353Z,102619.38
2022-11-29T00:54:02.528Z,102615.84
2022-11-29T00:56:31.780Z,102616.00
2022-11-29T00:58:59.608Z,102614.31
2022-11-29T01:01:27.686Z,102616.13
2022-11-29T01:03:55.634Z,102617.16
2022-11-29T01:06:23.523Z,102509.19
2022-11-29T01:08:51.575Z,102616.50
2022-11-29T01:11:23.484Z,102613.00
2022-11-29T01:14:00.021Z,102611.44
2022-11-29T01:16:30.144Z,102614.94
2022-11-29T01:18:58.024Z,102573.84
2022-11-29T01:21:26.210Z,102592.25
2022-11-29T01:23:54.964Z,102618.56
2022-11-29T01:26:24.699Z,102593.56
2022-11-29T01:28:56.129Z,102609.09
2022-11-29T01:31:26.405Z,102612.47
2022-11-29T01:33:55.417Z,102615.06
2022-11-29T01:36:23.717Z,102603.16
2022-11-29T01:38:51.705Z,102619.22
2022-11-29T01:41:24.296Z,102614.69
2022-11-29T01:43:58.821Z,102616.25
2022-11-29T01:46:28.242Z,102612.63
2022-11-29T01:49:01.421Z,102613.25
2022-11-29T01:51:30.898Z,102593.56
2022-11-29T01:53:59.573Z,102610.28
2022-11-29T01:56:28.958Z,102605.47
2022-11-29T01:58:58.713Z,102605.63
2022-11-29T02:01:27.251Z,102615.88
2022-11-29T02:03:55.339Z,102610.53
2022-11-29T02:06:23.752Z,102616.63
2022-11-29T02:08:51.565Z,102619.22
2022-11-29T02:11:41.649Z,102606.78
2022-11-29T02:14:24.896Z,102611.44
2022-11-29T02:17:02.591Z,102605.75
2022-11-29T02:19:54.685Z,102608.84
2022-11-29T02:22:30.215Z,102612.09
2022-11-29T02:25:14.074Z,102611.97
2022-11-29T02:28:21.880Z,102612.63
2022-11-29T02:31:26.975Z,102616.00
2022-11-29T02:34:17.540Z,102568.41
2022-11-29T02:37:11.660Z,102597.44
2022-11-29T02:40:06.962Z,102620.00
2022-11-29T02:42:59.688Z,102616.63
2022-11-29T02:45:40.532Z,102620.00
2022-11-29T02:48:21.961Z,102609.75
2022-11-29T02:50:58.451Z,102615.59
2022-11-29T02:53:33.335Z,102613.91
2022-11-29T02:56:14.941Z,102618.19
2022-11-29T02:58:51.138Z,102623.38
2022-11-29T03:01:25.738Z,102615.47
2022-11-29T03:04:03.603Z,102618.97
2022-11-29T03:06:44.269Z,102616.75
2022-11-29T03:09:24.430Z,102624.03
2022-11-29T03:12:00.164Z,102590.69
2022-11-29T03:14:34.091Z,102622.97
2022-11-29T03:17:14.097Z,102616.88
2022-11-29T03:19:56.967Z,102615.84
2022-11-29T03:22:44.204Z,102605.59
2022-11-29T03:25:20.548Z,102614.69
2022-11-29T03:27:58.280Z,102620.00
2022-11-29T03:30:26.196Z,102614.81
2022-11-29T03:33:05.362Z,102586.53
2022-11-29T03:35:41.994Z,102610.66
2022-11-29T03:38:26.351Z,102588.34
2022-11-29T03:41:05.740Z,102611.44
2022-11-29T03:43:42.830Z,102611.44
2022-11-29T03:46:13.789Z,102615.59
2022-11-29T03:48:47.274Z,102620.78
2022-11-29T03:51:19.910Z,102602.09
2022-11-29T03:53:53.351Z,102613.91
2022-11-29T03:56:29.476Z,102620.13
2022-11-29T03:59:10.474Z,102619.22
2022-11-29T04:02:01.580Z,102620.13
2022-11-29T04:04:58.104Z,102612.22
2022-11-29T04:07:42.082Z,102625.44
2022-11-29T04:10:21.209Z,102629.84
2022-11-29T04:13:39.603Z,102621.16
2022-11-29T04:16:26.427Z,102627.25
2022-11-29T04:19:16.241Z,102628.31
2022-11-29T04:21:58.487Z,102621.81
2022-11-29T04:24:57.832Z,102630.13
2022-11-29T04:27:44.414Z,102624.94
2022-11-29T04:30:18.898Z,102627.66
2022-11-29T04:33:25.763Z,102622.97
2022-11-29T04:36:24.507Z,102627.00
2022-11-29T04:39:12.358Z,102627.00
2022-11-29T04:42:28.714Z,102622.06
2022-11-29T04:45:17.160Z,102627.28
2022-11-29T04:47:56.658Z,102606.91
2022-11-29T04:50:43.524Z,102630.63
2022-11-29T04:53:40.234Z,102639.59
2022-11-29T04:56:18.964Z,102632.47
2022-11-29T04:58:54.688Z,102634.41
2022-11-29T05:01:33.616Z,102633.22
2022-11-29T05:04:07.988Z,102645.81
2022-11-29T05:06:44.312Z,102640.50
2022-11-29T05:09:20.203Z,102638.81
2022-11-29T05:12:00.825Z,102645.03
2022-11-29T05:14:42.889Z,102643.22
2022-11-29T05:17:31.641Z,102644.00
2022-11-29T05:20:21.429Z,102631.66
2022-11-29T05:23:02.954Z,102649.06
2022-11-29T05:25:38.449Z,102653.97
2022-11-29T05:28:11.771Z,102653.47
2022-11-29T05:31:07.777Z,102656.97
2022-11-29T05:33:57.597Z,102658.78
2022-11-29T05:36:34.296Z,102662.16
2022-11-29T05:39:21.720Z,102647.50
2022-11-29T05:42:06.832Z,102666.44
2022-11-29T05:44:40.160Z,102669.16
2022-11-29T05:47:10.253Z,102663.72
2022-11-29T05:49:48.536Z,102660.19
2022-11-29T05:52:25.582Z,102657.63
2022-11-29T05:55:11.336Z,102666.56
2022-11-29T05:57:49.031Z,102670.06
2022-11-29T06:00:20.276Z,102675.25
2022-11-29T06:02:58.607Z,102676.03
2022-11-29T06:05:36.313Z,102677.72
2022-11-29T06:08:09.617Z,102643.72
2022-11-29T06:10:41.027Z,102677.06
2022-11-29T06:13:23.155Z,102678.75
2022-11-29T06:16:19.964Z,102686.66
2022-11-29T06:19:27.106Z,102687.56
2022-11-29T06:22:07.178Z,102664.59
2022-11-29T06:24:50.812Z,102690.03
2022-11-29T06:27:43.166Z,102618.94
2022-11-29T06:30:14.409Z,102668.22
2022-11-29T06:32:50.560Z,102687.03
2022-11-29T06:35:35.406Z,102693.00
2022-11-29T06:38:14.442Z,102689.63
2022-11-29T06:40:42.850Z,102695.72
2022-11-29T06:43:11.169Z,102688.97
2022-11-29T06:45:41.188Z,102700.78
2022-11-29T06:48:13.131Z,102697.28
2022-11-29T06:50:48.734Z,102699.88
2022-11-29T06:53:23.728Z,102698.84
2022-11-29T06:56:00.208Z,102689.75
2022-11-29T06:58:39.487Z,102694.56
2022-11-29T07:01:18.408Z,102698.84
2022-11-29T07:04:05.160Z,102696.13
2022-11-29T07:06:35.474Z,102605.16
2022-11-29T07:09:13.903Z,102671.81
2022-11-29T07:11:43.009Z,102706.63
2022-11-29T07:14:11.529Z,102716.34
2022-11-29T07:16:54.435Z,102698.31
2022-11-29T07:19:34.660Z,102713.88
2022-11-29T07:22:10.027Z,102712.34
2022-11-29T07:24:57.239Z,102711.56
2022-11-29T07:27:34.143Z,102717.66
2022-11-29T07:30:11.678Z,102722.19
2022-11-29T07:32:52.039Z,102722.47
2022-11-29T07:35:30.527Z,102720.00
2022-11-29T07:38:10.143Z,102722.59
2022-11-29T07:40:44.879Z,102723.50
2022-11-29T07:43:27.767Z,102724.41
2022-11-29T07:45:59.277Z,102668.22
2022-11-29T07:48:27.988Z,102732.31
2022-11-29T07:50:57.154Z,102730.78
2022-11-29T07:53:25.546Z,102695.34
2022-11-29T07:55:54.802Z,102734.28
2022-11-29T07:58:22.928Z,102733.50
2022-11-29T08:00:50.849Z,102724.81
2022-11-29T08:03:18.687Z,102728.94
2022-11-29T08:05:48.026Z,102726.34
2022-11-29T08:08:16.220Z,102728.94
2022-11-29T08:10:44.114Z,102732.59
2022-11-29T08:13:13.619Z,102730.00
2022-11-29T08:15:45.364Z,102736.88
2022-11-29T08:18:13.385Z,102733.38
2022-11-29T08:20:41.880Z,102721.16
2022-11-29T08:23:12.868Z,102731.69
2022-11-29T08:25:41.173Z,102694.44
2022-11-29T08:28:09.360Z,102734.53
2022-11-29T08:30:38.915Z,102730.25
2022-11-29T08:33:07.174Z,102734.41
2022-11-29T08:35:35.863Z,102725.31
2022-11-29T08:38:05.016Z,102742.19
2022-11-29T08:40:33.015Z,102735.31
2022-11-29T08:43:00.907Z,102743.09
2022-11-29T08:45:28.961Z,102749.97
2022-11-29T08:47:58.320Z,102731.81
2022-11-29T08:50:26.208Z,102735.31
2022-11-29T08:53:11.436Z,102739.72
2022-11-29T08:55:43.044Z,102738.03
2022-11-29T08:58:13.951Z,102737.91
2022-11-29T09:00:44.201Z,102714.03
2022-11-29T09:03:31.087Z,102734.94
2022-11-29T09:05:59.822Z,102735.19
2022-11-29T09:08:27.619Z,102744.03
2022-11-29T09:10:55.436Z,102733.63
2022-11-29T09:13:23.428Z,102729.22
2022-11-29T09:15:51.248Z,102741.03
2022-11-29T09:18:20.607Z,102738.56
2022-11-29T09:20:48.680Z,102738.84
2022-11-29T09:23:16.521Z,102739.09
2022-11-29T09:25:49.944Z,102704.56
2022-11-29T09:28:17.770Z,102740.41
2022-11-29T09:30:45.577Z,102732.09
2022-11-29T09:33:13.555Z,102740.13
2022-11-29T09:35:42.914Z,102742.09
2022-11-29T09:38:12.294Z,102724.69
2022-11-29T09:40:46.917Z,102735.72
2022-11-29T09:43:23.168Z,102739.50
2022-11-29T09:45:57.092Z,102730.91
2022-11-29T09:48:38.134Z,102732.72
2022-11-29T09:51:17.648Z,102732.72
2022-11-29T09:54:11.800Z,102725.88
2022-11-29T09:56:43.585Z,102741.81
2022-11-29T09:59:15.540Z,102735.59
2022-11-29T10:01:48.402Z,102623.25
2022-11-29T10:04:20.301Z,102738.84
2022-11-29T10:06:58.366Z,102736.50
2022-11-29T10:09:33.677Z,102736.63
2022-11-29T10:12:15.117Z,102743.63
2022-11-29T10:14:47.500Z,102743.00
2022-11-29T10:17:26.953Z,102743.25
2022-11-29T10:20:00.668Z,102740.50
2022-11-29T10:22:37.408Z,102742.84
2022-11-29T10:25:10.399Z,102741.28
2022-11-29T10:27:41.898Z,102739.72
2022-11-29T10:30:15.950Z,102714.44
2022-11-29T10:32:47.214Z,102741.41
2022-11-29T10:35:16.985Z,102746.06
2022-11-29T10:38:07.754Z,102738.53
2022-11-29T10:40:37.355Z,102734.38
2022-11-29T10:43:05.447Z,102749.16
2022-11-29T10:45:37.745Z,102750.97
2022-11-29T10:48:09.246Z,102745.00
2022-11-29T10:50:38.015Z,102748.63
2022-11-29T10:53:11.853Z,102749.56
2022-11-29T10:55:44.260Z,102750.19
2022-11-29T10:58:15.915Z,102748.25
2022-11-29T11:00:51.473Z,102749.44
2022-11-29T11:03:28.644Z,102744.00
2022-11-29T11:06:03.631Z,102700.53
2022-11-29T11:08:34.840Z,102750.47
2022-11-29T11:11:05.003Z,102711.56
2022-11-29T11:13:33.711Z,102745.03
2022-11-29T11:16:10.720Z,102754.50
2022-11-29T11:18:39.104Z,102747.38
2022-11-29T11:21:11.999Z,102741.13
2022-11-29T11:23:47.774Z,102704.31
2022-11-29T11:26:16.348Z,102753.09
2022-11-29T11:28:50.527Z,102751.41
2022-11-29T11:31:31.023Z,102747.25
2022-11-29T11:34:18.863Z,102739.19
2022-11-29T11:36:46.893Z,102744.78
2022-11-29T11:39:21.150Z,102743.75
2022-11-29T11:42:06.998Z,102750.22
2022-11-29T11:44:48.446Z,102754.38
2022-11-29T11:47:19.722Z,102744.78
2022-11-29T11:49:50.599Z,102745.56
2022-11-29T11:52:23.199Z,102754.38
2022-11-29T11:54:55.582Z,102743.88
2022-11-29T11:57:24.955Z,102742.97
2022-11-29T11:59:54.687Z,102747.25
2022-11-29T12:02:27.685Z,102746.34
2022-11-29T12:04:58.756Z,102750.88
2022-11-29T12:08:06.324Z,102738.16
2022-11-29T12:10:26.503Z,102753.47
2022-11-29T12:12:56.087Z,102753.34
2022-11-29T12:15:28.802Z,102757.63
2022-11-29T12:18:03.012Z,102715.06
2022-11-29T12:20:35.059Z,102756.97
2022-11-29T12:23:24.432Z,102758.16
2022-11-29T12:25:59.302Z,102748.41
2022-11-29T12:28:30.575Z,102751.13
2022-11-29T12:31:09.070Z,102749.31
2022-11-29T12:33:47.872Z,102752.94
2022-11-29T12:36:29.517Z,102753.84
2022-11-29T12:39:12.590Z,102743.63
2022-11-29T12:41:54.263Z,102741.78
2022-11-29T12:44:40.658Z,102751.53
2022-11-29T12:50:26.076Z,102753.63
2022-11-29T12:53:07.729Z,102747.38
2022-11-29T12:55:45.371Z,102752.97
2022-11-29T12:58:22.818Z,102749.22
2022-11-29T13:01:03.221Z,102751.56
2022-11-29T13:03:42.081Z,102764.16
2022-11-29T13:06:23.321Z,102759.59
2022-11-29T13:09:21.865Z,102756.75
2022-11-29T13:11:57.918Z,102749.09
2022-11-29T13:14:44.127Z,102757.28
2022-11-29T13:17:27.727Z,102758.06
2022-11-29T13:19:59.156Z,102747.66
2022-11-29T13:22:32.232Z,102749.63
2022-11-29T13:25:04.245Z,102746.63
2022-11-29T13:27:36.100Z,102765.44
2022-11-29T13:30:06.982Z,102761.16
2022-11-29T13:32:37.415Z,102750.91
2022-11-29T13:35:13.500Z,102755.19
2022-11-29T13:37:54.966Z,102759.59
2022-11-29T13:40:33.451Z,102759.47
2022-11-29T13:43:10.353Z,102760.38
2022-11-29T13:45:43.739Z,102757.66
2022-11-29T13:48:35.150Z,102757.66
2022-11-29T13:51:25.860Z,102756.75
2022-11-29T13:53:55.336Z,102756.75
2022-11-29T13:56:36.118Z,102757.53
2022-11-29T13:59:09.367Z,102762.84
2022-11-29T14:01:51.527Z,102763.50
2022-11-29T14:04:42.886Z,102752.84
2022-11-29T14:07:14.214Z,102757.41
2022-11-29T14:09:50.272Z,102758.56
2022-11-29T14:12:31.237Z,102766.34
2022-11-29T14:15:02.975Z,102771.41
2022-11-29T14:17:47.527Z,102738.97
2022-11-29T14:20:52.121Z,102763.50
2022-11-29T14:23:33.544Z,102742.09
2022-11-29T14:26:30.043Z,102770.91
2022-11-29T14:29:01.166Z,102728.31
2022-11-29T14:31:52.317Z,102764.66
2022-11-29T14:34:48.541Z,102762.97
2022-11-29T14:37:45.533Z,102760.66
2022-11-29T14:40:24.392Z,102763.38
2022-11-29T14:42:53.320Z,102768.19
2022-11-29T14:45:27.661Z,102770.00
2022-11-29T14:47:57.240Z,102764.94
2022-11-29T14:50:36.098Z,102766.09
2022-11-29T14:53:05.333Z,102737.69
2022-11-29T14:55:36.559Z,102769.34
2022-11-29T14:58:21.365Z,102759.59
2022-11-29T15:01:10.620Z,102776.22
2022-11-29T15:03:45.447Z,102771.03
2022-11-29T15:06:19.145Z,102772.59
2022-11-29T15:08:55.689Z,102777.78
2022-11-29T15:11:32.660Z,102782.97
2022-11-29T15:14:05.915Z,102775.84
2022-11-29T15:16:49.773Z,102776.59
2022-11-29T15:19:47.570Z,102778.94
2022-11-29T15:22:20.181Z,102735.19
2022-11-29T15:24:56.786Z,102771.41
2022-11-29T15:27:25.352Z,102769.72
2022-11-29T15:29:53.187Z,102767.00
2022-11-29T15:32:27.276Z,102775.81
2022-11-29T15:34:56.812Z,102773.09
2022-11-29T15:37:42.779Z,102741.16
2022-11-29T15:40:14.532Z,102766.59
2022-11-29T15:42:45.060Z,102771.66
2022-11-29T15:45:28.531Z,102785.03
2022-11-29T15:48:11.447Z,102776.22
2022-11-29T15:50:41.008Z,102771.78
2022-11-29T15:53:18.447Z,102774.38
2022-11-29T15:55:49.544Z,102761.78
2022-11-29T15:58:18.365Z,102757.00
2022-11-29T16:00:49.762Z,102777.63
2022-11-29T16:03:22.673Z,102781.91
2022-11-29T16:05:53.749Z,102774.78
2022-11-29T16:08:23.380Z,102775.53
2022-11-29T16:10:53.543Z,102774.50
2022-11-29T16:13:33.781Z,102766.19
2022-11-29T16:16:11.668Z,102782.81
2022-11-29T16:18:42.212Z,102776.72
2022-11-29T16:21:25.540Z,102785.00
2022-11-29T16:23:55.366Z,102775.13
2022-11-29T16:26:29.531Z,102748.66
2022-11-29T16:28:58.543Z,102781.88
2022-11-29T16:31:34.401Z,102773.97
2022-11-29T16:34:09.756Z,102773.81
2022-11-29T16:36:38.101Z,102773.81
2022-11-29T16:39:16.576Z,102775.66
2022-11-29T16:41:44.410Z,102782.66
2022-11-29T16:44:56.002Z,102782.66
2022-11-29T16:47:25.891Z,102784.34
2022-11-29T16:50:15.486Z,102780.19
2022-11-29T16:52:43.600Z,102779.00
2022-11-29T16:55:13.498Z,102783.56
2022-11-29T16:57:41.880Z,102782.78
2022-11-29T17:00:22.593Z,102785.38
2022-11-29T17:02:50.691Z,102774.59
2022-11-29T17:05:18.631Z,102784.72
2022-11-29T17:07:47.067Z,102783.19
2022-11-29T17:10:19.462Z,102782.91
2022-11-29T17:12:48.612Z,102788.38
2022-11-29T17:15:16.712Z,102771.38
2022-11-29T17:17:44.700Z,102790.19
2022-11-29T17:20:13.771Z,102763.06
2022-11-29T17:22:42.456Z,102782.28
2022-11-29T17:25:11.112Z,102785.13
2022-11-29T17:27:40.468Z,102760.84
2022-11-29T17:30:11.541Z,102788.78
2022-11-29T17:32:39.447Z,102784.50
2022-11-29T17:35:08.493Z,102784.50
2022-11-29T17:37:36.479Z,102782.03
2022-11-29T17:40:04.517Z,102770.34
2022-11-29T17:42:32.404Z,102782.16
2022-11-29T17:45:01.850Z,102795.25
2022-11-29T17:47:29.644Z,102776.97
2022-11-29T17:49:58.123Z,102787.63
2022-11-29T17:52:26.060Z,102743.22
2022-11-29T17:54:54.099Z,102788.66
2022-11-29T17:57:21.977Z,102794.88
2022-11-29T17:59:49.949Z,102787.22
2022-11-29T18:02:19.211Z,102793.34
2022-11-29T18:04:47.219Z,102792.44
2022-11-29T18:07:17.308Z,102791.50
2022-11-29T18:09:46.770Z,102796.72
2022-11-29T18:12:14.973Z,102803.72
2022-11-29T18:14:43.012Z,102806.44
2022-11-29T18:17:11.030Z,102777.47
2022-11-29T18:19:40.343Z,102810.72
2022-11-29T18:22:08.671Z,102805.78
2022-11-29T18:24:36.545Z,102805.94
2022-11-29T18:27:04.646Z,102804.50
2022-11-29T18:29:38.205Z,102810.97
2022-11-29T18:32:07.136Z,102818.00
2022-11-29T18:34:35.070Z,102821.50
2022-11-29T18:37:04.416Z,102784.34
2022-11-29T18:39:32.383Z,102726.06
2022-11-29T18:42:00.283Z,102810.97
2022-11-29T18:44:29.508Z,102812.66
2022-11-29T18:46:58.030Z,102814.09
2022-11-29T18:49:26.089Z,102822.16
2022-11-29T18:51:53.909Z,102817.47
2022-11-29T18:54:23.214Z,102824.75
2022-11-29T18:56:51.918Z,102827.34
2022-11-29T18:59:19.904Z,102832.66
2022-11-29T19:01:48.848Z,102833.56
2022-11-29T19:04:18.515Z,102831.88
2022-11-29T19:06:46.532Z,102833.56
2022-11-29T19:09:17.069Z,102836.44
2022-11-29T19:11:46.295Z,102835.66
2022-11-29T19:14:14.198Z,102832.28
2022-11-29T19:16:44.394Z,102838.50
2022-11-29T19:19:12.653Z,102798.13
2022-11-29T19:21:41.414Z,102840.31
2022-11-29T19:24:15.238Z,102849.94
2022-11-29T19:26:45.463Z,102849.03
2022-11-29T19:29:17.653Z,102821.09
2022-11-29T19:31:45.513Z,102846.16
2022-11-29T19:34:13.496Z,102861.59
2022-11-29T19:36:43.892Z,102856.41
2022-11-29T19:39:13.937Z,102856.41
2022-11-29T19:41:43.047Z,102856.41
2022-11-29T19:44:11.611Z,102862.50
2022-11-29T19:46:42.751Z,102805.75
2022-11-29T19:49:11.015Z,102868.88
2022-11-29T19:51:39.723Z,102865.50
2022-11-29T19:54:09.655Z,102842.13
2022-11-29T19:56:38.865Z,102860.31
2022-11-29T19:59:07.940Z,102833.69
2022-11-29T20:01:43.832Z,102865.63
2022-11-29T20:04:16.766Z,102864.59
2022-11-29T20:06:45.486Z,102864.59
2022-11-29T20:09:14.847Z,102820.69
2022-11-29T20:11:42.878Z,102870.97
2022-11-29T20:14:13.615Z,102861.09
2022-11-29T20:16:42.562Z,102873.81
2022-11-29T20:19:13.893Z,102877.34
2022-11-29T20:21:44.265Z,102879.16
2022-11-29T20:24:15.432Z,102877.47
2022-11-29T20:26:47.682Z,102884.47
2022-11-29T20:29:15.926Z,102889.66
2022-11-29T20:31:50.723Z,102882.91
2022-11-29T20:34:21.187Z,102876.94
2022-11-29T20:37:09.408Z,102886.69
2022-11-29T20:39:46.676Z,102890.06
2022-11-29T20:42:33.275Z,102890.97
2022-11-29T20:45:02.796Z,102891.88
2022-11-29T20:47:51.015Z,102884.88
2022-11-29T20:50:23.725Z,102850.94
2022-11-29T20:53:04.095Z,102889.28
2022-11-29T20:55:32.218Z,102884.47
2022-11-29T20:58:00.095Z,102887.47
2022-11-29T21:00:27.967Z,102885.13
2022-11-29T21:02:55.792Z,102895.91
2022-11-29T21:05:25.102Z,102902.78
2022-11-29T21:07:53.043Z,102895.00
2022-11-29T21:10:21.949Z,102889.41
2022-11-29T21:12:50.346Z,102907.19
2022-11-29T21:15:19.183Z,102903.56
2022-11-29T21:17:47.572Z,102904.47
2022-11-29T21:20:19.484Z,102900.19
2022-11-29T21:22:54.936Z,102907.19
2022-11-29T21:25:30.168Z,102908.75
2022-11-29T21:27:58.975Z,102880.69
2022-11-29T21:30:29.685Z,102914.06
2022-11-29T21:32:57.964Z,102904.19
2022-11-29T21:35:26.333Z,102897.84
2022-11-29T21:37:59.563Z,102867.53
2022-11-29T21:40:28.887Z,102881.31
2022-11-29T21:42:57.246Z,102911.22
2022-11-29T21:45:25.197Z,102921.59
2022-11-29T21:47:53.080Z,102921.59
2022-11-29T21:50:20.964Z,102906.41
2022-11-29T21:52:52.320Z,102919.78
2022-11-29T21:55:21.566Z,102916.28
2022-11-29T21:57:49.434Z,102920.56
2022-11-29T22:00:18.205Z,102923.94
2022-11-29T22:02:46.205Z,102913.41
2022-11-29T22:05:14.417Z,102911.59
2022-11-29T22:07:42.376Z,102918.47
2022-11-29T22:10:13.472Z,102914.97
2022-11-29T22:12:51.959Z,102914.06
2022-11-29T22:15:24.835Z,102912.09
2022-11-29T22:17:53.393Z,102917.28
2022-11-29T22:20:21.431Z,102918.19
2022-11-29T22:22:49.759Z,102919.88
2022-11-29T22:25:17.926Z,102919.88
2022-11-29T22:27:49.716Z,102916.38
2022-11-29T22:30:18.032Z,102899.88
2022-11-29T22:32:45.832Z,102917.28
2022-11-29T22:35:13.774Z,102916.38
2022-11-29T22:37:41.688Z,102906.50
2022-11-29T22:40:10.007Z,102913.00
2022-11-29T22:42:37.884Z,102920.78
2022-11-29T22:45:08.116Z,102910.28
2022-11-29T22:47:35.897Z,102916.38
2022-11-29T22:50:03.799Z,102914.44
2022-11-29T22:52:31.727Z,102913.50
2022-11-29T22:55:04.407Z,102913.38
2022-11-29T22:57:33.248Z,102911.16
2022-11-29T23:00:01.311Z,102912.06
2022-11-29T23:02:32.967Z,102911.66
2022-11-29T23:05:00.944Z,102916.34
2022-11-29T23:07:28.761Z,102925.03
2022-11-29T23:09:56.772Z,102919.84
2022-11-29T23:12:24.917Z,102920.63
2022-11-29T23:14:56.334Z,102928.28
2022-11-29T23:17:24.318Z,102931.00
2022-11-29T23:19:53.724Z,102929.06
2022-11-29T23:22:21.569Z,102923.09
2022-11-29T23:24:49.455Z,102920.50
2022-11-29T23:27:17.539Z,102922.19
2022-11-29T23:29:45.342Z,102922.03
2022-11-29T23:32:13.182Z,102921.13
2022-11-29T23:34:41.127Z,102925.41
2022-11-29T23:37:10.283Z,102919.31
2022-11-29T23:39:38.095Z,102927.88
2022-11-29T23:42:06.591Z,102917.50
2022-11-29T23:44:34.428Z,102926.97
2022-11-29T23:47:02.267Z,102926.06
2022-11-29T23:49:30.221Z,102898.59
2022-11-29T23:51:58.387Z,102927.72
2022-11-29T23:54:27.512Z,102925.91
2022-11-29T23:56:55.584Z,102925.78
2022-11-29T23:59:23.420Z,102925.78
